Time;durP1;ratioP1;P1;durP2;ratioP2;P2;SDS_P1;SDS_P2;PMS_P1;PMS_P2;Temp;Humidity;BMP_temperature;BMP_pressure;BME280_temperature;BME280_humidity;BME280_pressure;Samples;Min_cycle;Max_cycle;Signal;HPM_P1;HPM_P2
2022/01/25 00:08:20;;;;;;;17.98;16.13;;;;;;;1.92;100.00;102636.13;691074;28;1286;-83
2022/01/25 00:08:43;;;;;;;17.85;15.65;;;;;;;1.90;100.00;102609.38;693608;28;2302;-88
2022/01/25 00:10:15;;;;;;;17.45;15.10;;;;;;;1.86;100.00;102638.34;688139;28;1695;-84
2022/01/25 00:24:13;;;;;;;17.70;15.82;;;;;;;1.85;100.00;102606.50;691930;28;1393;-83
2022/01/25 00:24:23;;;;;;;18.77;15.38;;;;;;;2.08;100.00;102604.47;700560;28;967;-87
2022/01/25 00:25:05;;;;;;;17.60;15.70;;;;;;;2.10;100.00;102614.88;698780;28;4273;-87
2022/01/25 00:26:46;;;;;;;17.93;15.70;;;;;;;1.98;100.00;102594.34;694570;28;1168;-87
2022/01/25 00:28:04;;;;;;;17.45;15.65;;;;;;;1.92;100.00;102622.38;694617;28;4378;-84
2022/01/25 00:29:58;;;;;;;18.25;16.38;;;;;;;1.87;100.00;102609.19;699906;28;1380;-84
2022/01/25 00:30:25;;;;;;;17.48;15.48;;;;;;;1.87;100.00;102609.19;699870;28;1480;-84
2022/01/25 00:31:01;;;;;;;20.20;16.75;;;;;;;1.89;100.00;102635.97;697954;28;4411;-84
2022/01/25 00:31:24;;;;;;;17.80;16.00;;;;;;;1.86;100.00;102635.78;699670;28;3407;-84
2022/01/25 00:31:44;;;;;;;18.23;16.23;;;;;;;1.86;100.00;102635.78;695682;28;1220;-83
2022/01/25 00:32:10;;;;;;;18.07;16.20;;;;;;;1.86;100.00;102628.91;697166;28;1316;-83
2022/01/25 00:32:30;;;;;;;18.52;16.63;;;;;;;1.87;100.00;102629.81;696979;28;1646;-84
2022/01/25 00:32:55;;;;;;;18.73;16.30;;;;;;;1.89;100.00;102645.41;695805;28;1554;-84
2022/01/25 00:33:15;;;;;;;18.08;16.17;;;;;;;1.91;100.00;102634.38;692184;28;1401;-84
2022/01/25 00:33:44;;;;;;;18.00;16.10;;;;;;;1.92;100.00;102633.56;696735;28;4369;-83
2022/01/25 00:34:05;;;;;;;17.83;15.93;;;;;;;1.91;100.00;102634.38;695186;28;1302;-82
2022/01/25 00:34:31;;;;;;;17.73;15.93;;;;;;;1.91;100.00;102636.06;697550;28;3915;-84
2022/01/25 00:34:52;;;;;;;17.83;15.93;;;;;;;1.87;100.00;102610.06;692915;28;1346;-84
2022/01/25 00:35:13;;;;;;;18.38;16.33;;;;;;;1.89;100.00;102642.81;693643;28;1386;-84
2022/01/25 00:35:33;;;;;;;18.00;16.05;;;;;;;1.87;100.00;102633.28;692466;28;1561;-84
2022/01/25 00:35:54;;;;;;;18.23;16.23;;;;;;;1.87;100.00;102604.03;693474;28;1648;-84
2022/01/25 00:36:17;;;;;;;19.60;17.38;;;;;;;1.86;100.00;102635.78;692410;28;1398;-83
2022/01/25 00:36:37;;;;;;;19.05;16.73;;;;;;;1.83;100.00;102605.53;693782;28;4421;-83
2022/01/25 00:36:58;;;;;;;18.98;16.23;;;;;;;1.83;100.00;102628.72;689400;28;3674;-83
2022/01/25 00:37:22;;;;;;;18.53;16.30;;;;;;;1.83;100.00;102602.94;694605;28;1842;-84
2022/01/25 00:37:42;;;;;;;18.48;16.38;;;;;;;1.83;100.00;102617.53;695443;28;1275;-84
2022/01/25 00:38:03;;;;;;;18.10;16.20;;;;;;;1.85;100.00;102631.41;694640;28;1219;-84
2022/01/25 00:38:27;;;;;;;18.80;16.23;;;;;;;1.84;100.00;102637.34;693127;28;1914;-84
2022/01/25 00:38:48;;;;;;;19.98;16.67;;;;;;;1.82;100.00;102651.84;695135;28;4283;-84
2022/01/25 00:39:11;;;;;;;18.50;16.27;;;;;;;1.80;100.00;102646.59;696935;28;1080;-84
2022/01/25 00:39:32;;;;;;;18.45;16.45;;;;;;;1.83;100.00;102639.03;695640;28;4532;-84
2022/01/25 00:39:53;;;;;;;21.17;16.75;;;;;;;1.83;100.00;102610.69;699931;28;1598;-84
2022/01/25 00:40:13;;;;;;;18.45;16.45;;;;;;;1.83;100.00;102610.69;695816;28;1920;-84
2022/01/25 00:40:34;;;;;;;18.47;16.57;;;;;;;1.83;100.00;102610.69;694336;28;2095;-84
2022/01/25 00:40:55;;;;;;;18.02;16.08;;;;;;;1.83;100.00;102604.63;696105;28;1899;-84
2022/01/25 00:41:17;;;;;;;18.20;15.95;;;;;;;1.82;100.00;102634.69;695033;28;1371;-84
2022/01/25 00:41:40;;;;;;;17.80;15.90;;;;;;;1.84;100.00;102604.72;692652;28;1442;-84
2022/01/25 00:42:01;;;;;;;18.45;16.45;;;;;;;1.83;100.00;102643.31;692673;28;1520;-84
2022/01/25 00:42:22;;;;;;;18.67;16.67;;;;;;;1.84;100.00;102635.69;694797;28;2189;-83
2022/01/25 00:42:46;;;;;;;18.48;16.48;;;;;;;1.84;100.00;102632.19;688206;28;4336;-83
2022/01/25 00:43:06;;;;;;;19.98;16.88;;;;;;;1.84;100.00;102621.88;692180;28;1480;-84
2022/01/25 00:43:27;;;;;;;20.70;17.42;;;;;;;1.86;100.00;102615.13;692890;28;1610;-84
2022/01/25 00:43:50;;;;;;;19.42;17.35;;;;;;;1.83;100.00;102636.47;696079;28;1392;-84
2022/01/25 00:44:12;;;;;;;18.92;16.95;;;;;;;1.83;100.00;102613.25;697102;28;1721;-84
2022/01/25 00:44:39;;;;;;;18.85;16.85;;;;;;;1.85;100.00;102601.34;696624;28;1739;-84
2022/01/25 00:44:59;;;;;;;18.83;16.92;;;;;;;1.84;100.00;102608.97;692996;28;2084;-84
2022/01/25 00:45:22;;;;;;;19.40;16.93;;;;;;;1.84;100.00;102598.66;694499;28;2984;-84
2022/01/25 00:45:42;;;;;;;18.58;16.30;;;;;;;1.85;100.00;102621.97;691641;28;4311;-83
2022/01/25 00:46:07;;;;;;;19.30;16.92;;;;;;;1.85;100.00;102645.19;693619;28;1311;-84
2022/01/25 00:46:29;;;;;;;19.73;16.98;;;;;;;1.82;100.00;102632.09;696192;28;1939;-84
2022/01/25 00:46:50;;;;;;;19.60;16.88;;;;;;;1.82;100.00;102626.06;696642;28;1493;-84
2022/01/25 00:47:10;;;;;;;19.43;16.57;;;;;;;1.83;100.00;102602.06;690470;28;1204;-83
2022/01/25 00:47:34;;;;;;;19.55;17.02;;;;;;;1.83;100.00;102602.94;695672;28;1449;-84
2022/01/25 00:47:55;;;;;;;19.67;16.23;;;;;;;1.82;100.00;102628.63;692558;28;2418;-84
2022/01/25 00:48:29;;;;;;;19.13;16.30;;;;;;;1.82;100.00;102626.06;696339;28;2160;-83
2022/01/25 00:48:53;;;;;;;18.75;16.75;;;;;;;1.82;100.00;102613.16;696149;28;4354;-83
2022/01/25 00:49:52;;;;;;;19.50;17.08;;;;;;;1.82;100.00;102598.56;697901;28;1649;-84
2022/01/25 00:50:15;;;;;;;20.58;16.95;;;;;;;1.82;100.00;102608.00;686325;28;2006;-84
2022/01/25 00:50:41;;;;;;;21.02;17.25;;;;;;;1.82;100.00;102616.63;698591;28;1474;-84
2022/01/25 00:54:27;;;;;;;20.30;16.67;;;;;;;1.82;100.00;102610.59;699276;28;1428;-84
2022/01/25 00:54:48;;;;;;;19.33;17.17;;;;;;;1.82;100.00;102631.22;695293;28;4506;-84
2022/01/25 00:55:12;;;;;;;18.84;16.82;;;;;;;1.80;100.00;102600.19;695431;28;1358;-84
2022/01/25 00:55:34;;;;;;;18.38;16.40;;;;;;;1.80;100.00;102596.69;693786;28;1562;-84
2022/01/25 00:55:55;;;;;;;18.55;16.40;;;;;;;1.78;100.00;102624.09;695702;28;1349;-84
2022/01/25 00:56:15;;;;;;;19.53;16.97;;;;;;;1.80;100.00;102602.75;698837;28;1402;-84
2022/01/25 00:56:40;;;;;;;18.97;16.27;;;;;;;1.78;100.00;102604.34;699514;28;2753;-82
2022/01/25 00:57:01;;;;;;;19.05;16.67;;;;;;;1.79;100.00;102607.81;698169;28;1387;-82
2022/01/25 00:57:25;;;;;;;19.50;16.75;;;;;;;1.78;100.00;102590.56;695834;28;1503;-82
2022/01/25 00:57:45;;;;;;;20.70;16.70;;;;;;;1.82;100.00;102596.00;695057;28;4291;-82
2022/01/25 00:58:06;;;;;;;19.13;16.23;;;;;;;1.81;100.00;102621.69;698343;28;1816;-83
2022/01/25 00:58:27;;;;;;;18.33;16.40;;;;;;;1.82;100.00;102597.69;698996;28;1914;-83
2022/01/25 00:58:47;;;;;;;17.83;15.93;;;;;;;1.80;100.00;102613.06;696503;28;1529;-83
2022/01/25 00:59:13;;;;;;;18.67;16.67;;;;;;;1.81;100.00;102593.31;696945;28;1444;-83
2022/01/25 00:59:36;;;;;;;19.38;16.85;;;;;;;1.79;100.00;102621.59;694045;28;3902;-83
2022/01/25 00:59:57;;;;;;;21.17;16.95;;;;;;;1.78;100.00;102598.28;696813;28;1647;-82
2022/01/25 01:00:18;;;;;;;18.70;16.17;;;;;;;1.75;100.00;102619.63;699535;28;1644;-82
2022/01/25 01:00:39;;;;;;;19.05;15.95;;;;;;;1.76;100.00;102605.94;699783;28;4543;-83
2022/01/25 01:00:59;;;;;;;19.77;16.10;;;;;;;1.75;100.00;102629.06;701580;28;1493;-83
2022/01/25 01:01:20;;;;;;;18.30;15.63;;;;;;;1.72;100.00;102622.00;702185;28;1237;-83
2022/01/25 01:01:42;;;;;;;17.90;16.00;;;;;;;1.72;100.00;102610.78;702040;28;1770;-83
2022/01/25 01:02:07;;;;;;;18.00;16.10;;;;;;;1.70;100.00;102598.72;698527;28;1524;-83
2022/01/25 01:02:27;;;;;;;19.27;17.10;;;;;;;1.70;100.00;102585.81;693745;28;3650;-83
2022/01/25 01:02:48;;;;;;;18.92;16.27;;;;;;;1.71;100.00;102612.50;695086;28;1537;-82
2022/01/25 01:03:09;;;;;;;18.77;16.00;;;;;;;1.69;100.00;102625.28;693433;28;1788;-83
2022/01/25 01:03:30;;;;;;;19.15;15.93;;;;;;;1.70;100.00;102590.06;693819;28;1665;-83
2022/01/25 01:03:51;;;;;;;18.20;16.27;;;;;;;1.69;100.00;102607.25;692467;28;4391;-83
2022/01/25 01:04:13;;;;;;;18.38;16.02;;;;;;;1.72;100.00;102615.94;691865;28;1565;-83
2022/01/25 01:04:34;;;;;;;17.58;15.60;;;;;;;1.71;100.00;102597.00;689104;28;1608;-83
2022/01/25 01:04:54;;;;;;;17.90;15.73;;;;;;;1.72;100.00;102619.44;693661;28;3493;-82
2022/01/25 01:05:15;;;;;;;17.90;16.00;;;;;;;1.74;100.00;102593.75;693346;28;1576;-83
2022/01/25 01:05:39;;;;;;;18.63;15.73;;;;;;;1.75;100.00;102603.28;692955;28;1447;-82
2022/01/25 01:06:05;;;;;;;18.38;16.10;;;;;;;1.77;100.00;102611.97;693997;28;1496;-82
2022/01/25 01:06:26;;;;;;;18.25;16.38;;;;;;;1.76;100.00;102626.56;689886;28;1544;-82
2022/01/25 01:06:48;;;;;;;18.30;16.38;;;;;;;1.75;100.00;102645.41;691596;28;4330;-83
2022/01/25 01:07:15;;;;;;;18.08;16.17;;;;;;;1.74;100.00;102592.03;696156;28;1302;-82
2022/01/25 01:07:41;;;;;;;17.55;15.75;;;;;;;1.75;100.00;102634.22;692348;28;1229;-82
2022/01/25 01:08:04;;;;;;;18.05;15.63;;;;;;;1.76;100.00;102625.66;691176;28;3697;-83
2022/01/25 01:08:33;;;;;;;17.80;15.90;;;;;;;1.77;100.00;102627.44;695528;28;1866;-84
2022/01/25 01:09:00;;;;;;;18.23;16.27;;;;;;;1.76;100.00;102630.81;697842;28;1286;-84
2022/01/25 01:09:24;;;;;;;18.90;16.50;;;;;;;1.75;100.00;102613.59;696325;28;1692;-83
2022/01/25 01:09:58;;;;;;;19.08;16.70;;;;;;;1.74;100.00;102601.47;684701;28;4292;-84
2022/01/25 01:10:24;;;;;;;18.60;16.55;;;;;;;1.75;100.00;102604.16;693105;28;1267;-83
2022/01/25 01:10:57;;;;;;;19.60;16.88;;;;;;;1.76;100.00;102631.72;696313;28;3836;-84
2022/01/25 01:11:28;;;;;;;18.80;16.80;;;;;;;1.77;100.00;102601.66;698351;28;1559;-87
2022/01/25 01:11:58;;;;;;;19.08;16.60;;;;;;;1.75;100.00;102600.69;694820;28;1261;-87
2022/01/25 01:13:45;;;;;;;17.65;15.77;;;;;;;1.77;100.00;102609.41;691790;28;4706;-84
2022/01/25 01:31:48;;;;;;;19.85;17.73;;;;;;;1.79;100.00;102638.78;694469;28;1271;-88
2022/01/25 01:37:04;;;;;;;20.65;17.83;;;;;;;1.83;100.00;102627.84;695883;28;1390;-84
2022/01/25 01:38:53;;;;;;;20.23;18.13;;;;;;;1.78;100.00;102650.75;696675;28;1268;-86
2022/01/25 01:39:22;;;;;;;21.38;18.13;;;;;;;1.80;100.00;102649.19;691803;28;1111;-87
2022/01/25 01:40:20;;;;;;;21.60;17.25;;;;;;;1.81;100.00;102635.47;700486;28;5018;-85
2022/01/25 01:42:17;;;;;;;19.98;17.40;;;;;;;1.78;100.00;102636.97;695035;28;1422;-84
2022/01/25 01:43:35;;;;;;;20.40;18.15;;;;;;;1.80;100.00;102627.63;700546;28;1396;-83
2022/01/25 01:44:00;;;;;;;21.00;18.17;;;;;;;1.78;100.00;102648.19;695900;28;1090;-82
2022/01/25 01:44:26;;;;;;;20.55;18.35;;;;;;;1.79;100.00;102625.88;695041;28;1274;-82
2022/01/25 01:45:35;;;;;;;20.40;18.05;;;;;;;1.80;100.00;102648.25;696398;28;1164;-82
2022/01/25 01:46:56;;;;;;;20.38;18.05;;;;;;;1.79;100.00;102628.47;698272;28;1369;-82
2022/01/25 01:47:24;;;;;;;21.95;18.33;;;;;;;1.80;100.00;102656.00;697011;28;1518;-84
2022/01/25 01:47:49;;;;;;;21.90;18.95;;;;;;;1.76;100.00;102623.06;699956;28;1558;-82
2022/01/25 01:48:15;;;;;;;22.38;18.52;;;;;;;1.75;100.00;102641.94;699850;28;2318;-85
2022/01/25 01:48:58;;;;;;;21.50;18.15;;;;;;;1.76;100.00;102643.72;699797;28;4332;-86
2022/01/25 01:49:19;;;;;;;19.92;17.83;;;;;;;1.76;100.00;102633.41;704370;28;911;-84
2022/01/25 01:49:43;;;;;;;20.33;18.10;;;;;;;1.76;100.00;102635.97;695075;28;1215;-84
2022/01/25 01:50:15;;;;;;;21.27;18.17;;;;;;;1.75;100.00;102650.56;694111;28;1221;-84
2022/01/25 01:50:37;;;;;;;19.92;17.83;;;;;;;1.77;100.00;102624.88;694330;28;3678;-85
2022/01/25 01:51:06;;;;;;;20.20;18.10;;;;;;;1.75;100.00;102618.75;691888;28;1317;-84
2022/01/25 01:51:36;;;;;;;21.58;18.13;;;;;;;1.74;100.00;102632.41;691115;28;1455;-84
2022/01/25 01:51:57;;;;;;;22.20;18.60;;;;;;;1.73;100.00;102615.16;694118;28;4762;-84
2022/01/25 01:52:17;;;;;;;24.55;18.88;;;;;;;1.71;100.00;102640.84;693785;28;1245;-84
2022/01/25 01:52:38;;;;;;;20.48;18.17;;;;;;;1.71;100.00;102617.66;693264;28;1448;-84
2022/01/25 01:53:09;;;;;;;20.42;17.75;;;;;;;1.70;100.00;102628.75;695249;28;1264;-84
2022/01/25 01:53:31;;;;;;;22.45;18.33;;;;;;;1.72;100.00;102634.91;694034;28;1357;-84
2022/01/25 01:53:52;;;;;;;21.40;18.08;;;;;;;1.72;100.00;102614.28;694129;28;2713;-84
2022/01/25 01:54:15;;;;;;;21.73;17.85;;;;;;;1.72;100.00;102610.78;697339;28;1336;-84
2022/01/25 01:54:39;;;;;;;21.80;17.92;;;;;;;1.68;100.00;102608.03;695143;28;4336;-84
2022/01/25 01:54:59;;;;;;;21.05;17.55;;;;;;;1.70;100.00;102616.75;698754;28;1334;-84
2022/01/25 01:55:21;;;;;;;20.88;17.95;;;;;;;1.70;100.00;102631.31;697912;28;1112;-84
2022/01/25 01:55:41;;;;;;;21.42;17.75;;;;;;;1.69;100.00;102637.31;700802;28;1348;-84
2022/01/25 01:56:05;;;;;;;20.77;17.88;;;;;;;1.68;100.00;102608.03;694928;28;1286;-85
2022/01/25 01:56:26;;;;;;;20.23;17.33;;;;;;;1.67;100.00;102607.94;698290;28;1388;-85
2022/01/25 01:56:47;;;;;;;21.75;17.83;;;;;;;1.67;100.00;102631.13;695843;28;2097;-84
2022/01/25 01:57:08;;;;;;;21.98;17.88;;;;;;;1.69;100.00;102614.97;695335;28;1528;-84
2022/01/25 01:57:29;;;;;;;22.08;18.08;;;;;;;1.69;100.00;102638.19;699144;28;920;-84
2022/01/25 01:57:50;;;;;;;21.42;17.88;;;;;;;1.69;100.00;102612.41;692658;28;4433;-82
2022/01/25 01:58:13;;;;;;;20.27;17.95;;;;;;;1.70;100.00;102621.00;694822;28;1926;-82
2022/01/25 01:58:38;;;;;;;20.55;17.80;;;;;;;1.68;100.00;102607.16;696226;28;1264;-82
2022/01/25 01:59:11;;;;;;;21.58;17.40;;;;;;;1.67;100.00;102608.81;696323;28;1626;-81
2022/01/25 01:59:32;;;;;;;19.67;17.23;;;;;;;1.65;100.00;102646.50;695565;28;3768;-82
2022/01/25 01:59:58;;;;;;;19.75;16.98;;;;;;;1.65;100.00;102607.84;692462;28;1351;-82
2022/01/25 02:00:21;;;;;;;20.58;17.63;;;;;;;1.64;100.00;102623.22;691644;28;1172;-83
2022/01/25 02:00:45;;;;;;;19.88;17.73;;;;;;;1.65;100.00;102609.53;688884;28;4290;-83
2022/01/25 02:01:21;;;;;;;19.88;17.65;;;;;;;1.64;100.00;102608.63;692183;28;1224;-85
2022/01/25 02:01:46;;;;;;;21.02;17.70;;;;;;;1.64;100.00;102637.00;693290;28;2594;-82
2022/01/25 02:02:10;;;;;;;22.00;17.63;;;;;;;1.65;100.00;102613.00;697509;28;1314;-82
2022/01/25 02:02:33;;;;;;;21.27;17.90;;;;;;;1.64;100.00;102603.47;695205;28;1313;-82
2022/01/25 02:02:53;;;;;;;20.98;17.95;;;;;;;1.66;100.00;102630.25;696315;28;1358;-82
2022/01/25 02:03:20;;;;;;;19.40;17.30;;;;;;;1.66;100.00;102608.72;695121;28;1207;-82
2022/01/25 02:03:46;;;;;;;21.83;17.52;;;;;;;1.69;100.00;102611.50;692575;28;4303;-82
2022/01/25 02:04:09;;;;;;;19.88;17.20;;;;;;;1.67;100.00;102601.06;696032;28;1539;-82
2022/01/25 02:04:29;;;;;;;21.70;17.85;;;;;;;1.68;100.00;102648.41;698757;28;3146;-82
2022/01/25 02:04:50;;;;;;;21.10;17.85;;;;;;;1.65;100.00;102637.91;699025;28;1601;-82
2022/01/25 02:05:10;;;;;;;21.30;17.53;;;;;;;1.65;100.00;102605.25;695986;28;4000;-82
2022/01/25 02:05:35;;;;;;;19.48;17.38;;;;;;;1.64;100.00;102633.53;698839;28;1320;-82
2022/01/25 02:06:01;;;;;;;19.52;17.00;;;;;;;1.64;100.00;102630.94;695907;28;1458;-83
2022/01/25 02:06:22;;;;;;;19.20;17.15;;;;;;;1.67;100.00;102629.44;697642;28;2406;-83
2022/01/25 02:06:42;;;;;;;19.80;17.52;;;;;;;1.64;100.00;102613.78;689703;28;4307;-83
2022/01/25 02:07:03;;;;;;;20.30;17.00;;;;;;;1.64;100.00;102608.63;698470;28;1677;-83
2022/01/25 02:07:29;;;;;;;20.67;17.27;;;;;;;1.61;100.00;102603.28;698565;28;3508;-83
2022/01/25 02:07:50;;;;;;;18.77;16.63;;;;;;;1.64;100.00;102611.22;698734;28;1355;-83
2022/01/25 02:08:10;;;;;;;20.35;16.60;;;;;;;1.64;100.00;102634.41;699191;28;1522;-83
2022/01/25 02:08:34;;;;;;;22.73;16.45;;;;;;;1.63;100.00;102611.13;699505;28;988;-83
2022/01/25 02:08:57;;;;;;;19.48;16.67;;;;;;;1.63;100.00;102611.13;692740;28;1232;-86
2022/01/25 02:09:18;;;;;;;20.00;16.70;;;;;;;1.64;100.00;102603.47;696529;28;1172;-87
2022/01/25 02:09:38;;;;;;;18.40;16.30;;;;;;;1.65;100.00;102617.28;697412;28;4326;-87
2022/01/25 02:10:02;;;;;;;20.70;16.58;;;;;;;1.63;100.00;102622.31;699569;28;1108;-87
2022/01/25 02:10:23;;;;;;;20.75;16.77;;;;;;;1.66;100.00;102616.44;699008;28;2223;-87
2022/01/25 02:10:44;;;;;;;19.50;16.83;;;;;;;1.66;100.00;102624.19;696632;28;1175;-87
2022/01/25 02:11:05;;;;;;;20.08;16.77;;;;;;;1.66;100.00;102617.38;697162;28;1022;-87
2022/01/25 02:11:26;;;;;;;20.77;16.95;;;;;;;1.67;100.00;102634.59;700230;28;1246;-87
2022/01/25 02:11:47;;;;;;;18.77;16.43;;;;;;;1.67;100.00;102605.34;694781;28;1353;-87
2022/01/25 02:12:08;;;;;;;18.45;16.33;;;;;;;1.68;100.00;102627.78;697818;28;1197;-87
2022/01/25 02:12:33;;;;;;;18.50;16.15;;;;;;;1.66;100.00;102619.94;696697;28;1280;-87
2022/01/25 02:12:54;;;;;;;20.20;17.15;;;;;;;1.67;100.00;102619.13;694851;28;4917;-87
2022/01/25 02:13:15;;;;;;;18.94;16.92;;;;;;;1.66;100.00;102608.72;693623;28;1091;-87
2022/01/25 02:13:40;;;;;;;18.70;16.20;;;;;;;1.66;100.00;102608.72;691230;28;1051;-87
2022/01/25 02:14:06;;;;;;;18.40;15.85;;;;;;;1.66;100.00;102644.81;690781;28;1087;-87
2022/01/25 02:14:29;;;;;;;19.27;16.15;;;;;;;1.66;100.00;102617.38;691792;28;1449;-88
2022/01/25 02:14:51;;;;;;;19.67;15.63;;;;;;;1.66;100.00;102622.53;697063;28;1257;-87
2022/01/25 02:15:12;;;;;;;18.58;15.27;;;;;;;1.66;100.00;102607.06;700584;28;1331;-86
2022/01/25 02:15:37;;;;;;;18.73;15.63;;;;;;;1.66;100.00;102631.94;696989;28;4274;-85
2022/01/25 02:16:05;;;;;;;17.95;15.70;;;;;;;1.64;100.00;102629.25;698489;28;2846;-83
2022/01/25 02:16:42;;;;;;;17.80;15.68;;;;;;;1.65;100.00;102628.47;690479;28;1231;-83
2022/01/25 02:17:24;;;;;;;18.67;16.17;;;;;;;1.66;100.00;102637.09;694555;28;1247;-83
2022/01/25 02:22:28;;;;;;;20.65;16.48;;;;;;;1.63;100.00;102642.06;700425;28;1586;-82
2022/01/25 02:22:49;;;;;;;19.42;16.00;;;;;;;1.65;100.00;102610.41;698005;28;1006;-84
2022/01/25 02:23:18;;;;;;;18.60;15.83;;;;;;;1.67;100.00;102629.44;697174;28;1289;-83
2022/01/25 02:23:50;;;;;;;18.55;15.90;;;;;;;1.68;100.00;102613.19;696019;28;1387;-85
2022/01/25 02:24:13;;;;;;;18.60;15.77;;;;;;;1.73;100.00;102651.25;690411;28;1938;-85
2022/01/25 02:24:34;;;;;;;18.30;15.63;;;;;;;1.69;100.00;102624.41;692022;28;4371;-85
2022/01/25 02:24:55;;;;;;;18.00;15.32;;;;;;;1.76;100.00;102605.94;694080;28;1678;-85
2022/01/25 02:25:15;;;;;;;18.10;15.35;;;;;;;1.86;100.00;102622.88;696441;28;1192;-85
2022/01/25 02:25:36;;;;;;;18.10;15.18;;;;;;;1.84;100.00;102634.78;696942;28;1511;-85
2022/01/25 02:26:13;;;;;;;17.33;14.87;;;;;;;1.86;100.00;102609.97;692573;28;829;-85
2022/01/25 02:26:34;;;;;;;18.38;15.50;;;;;;;1.86;100.00;102636.66;693545;28;1482;-83
2022/01/25 02:26:56;;;;;;;18.08;15.35;;;;;;;1.86;100.00;102615.13;694586;28;880;-85
2022/01/25 02:27:21;;;;;;;18.20;15.20;;;;;;;1.85;100.00;102615.94;692499;28;2182;-85
2022/01/25 02:27:43;;;;;;;18.40;15.50;;;;;;;1.85;100.00;102605.59;692908;28;4299;-83
2022/01/25 02:28:03;;;;;;;17.45;15.18;;;;;;;1.82;100.00;102632.09;697043;28;1964;-83
2022/01/25 02:28:31;;;;;;;17.13;15.10;;;;;;;1.82;100.00;102608.00;698950;28;1247;-86
2022/01/25 02:28:51;;;;;;;19.12;15.16;;;;;;;1.77;100.00;102648.09;700656;28;1316;-82
2022/01/25 02:29:12;;;;;;;18.77;15.10;;;;;;;1.76;100.00;102626.56;693014;28;1363;-82
2022/01/25 02:29:33;;;;;;;18.73;15.40;;;;;;;1.73;100.00;102612.59;694485;28;1347;-81
2022/01/25 02:29:53;;;;;;;18.15;15.13;;;;;;;1.68;100.00;102638.09;695245;28;3504;-82
2022/01/25 02:30:26;;;;;;;17.20;15.25;;;;;;;1.69;100.00;102612.41;696938;28;3975;-85
2022/01/25 02:30:51;;;;;;;18.00;15.63;;;;;;;1.68;100.00;102610.59;695274;28;4968;-83
2022/01/25 02:31:15;;;;;;;18.95;15.38;;;;;;;1.68;100.00;102615.75;697027;28;1471;-87
2022/01/25 02:31:36;;;;;;;20.02;15.13;;;;;;;1.69;100.00;102619.25;695468;28;1312;-86
2022/01/25 02:31:56;;;;;;;18.17;15.90;;;;;;;1.68;100.00;102613.19;695904;28;1154;-87
2022/01/25 02:32:17;;;;;;;18.43;15.73;;;;;;;1.65;100.00;102613.00;701676;28;1240;-84
2022/01/25 02:32:39;;;;;;;19.23;15.63;;;;;;;1.64;100.00;102636.09;698299;28;1107;-82
2022/01/25 02:33:03;;;;;;;19.35;16.15;;;;;;;1.62;100.00;102611.91;694065;28;2295;-87
2022/01/25 02:33:29;;;;;;;18.30;15.55;;;;;;;1.60;100.00;102631.56;694208;28;1173;-87
2022/01/25 02:33:50;;;;;;;18.45;15.63;;;;;;;1.60;100.00;102611.81;696177;28;4276;-87
2022/01/25 02:34:11;;;;;;;19.65;15.82;;;;;;;1.60;100.00;102608.34;694134;28;1401;-87
2022/01/25 02:34:32;;;;;;;18.27;15.38;;;;;;;1.58;100.00;102600.53;695258;28;1180;-87
2022/01/25 02:35:02;;;;;;;19.45;15.73;;;;;;;1.59;100.00;102603.97;697469;28;1148;-87
2022/01/25 02:35:23;;;;;;;19.30;15.70;;;;;;;1.62;100.00;102614.47;694867;28;1361;-87
2022/01/25 02:35:43;;;;;;;18.87;15.70;;;;;;;1.60;100.00;102598.91;692834;28;2265;-88
2022/01/25 02:36:10;;;;;;;19.90;16.10;;;;;;;1.63;100.00;102614.56;693078;28;1326;-87
2022/01/25 02:36:34;;;;;;;18.60;16.10;;;;;;;1.63;100.00;102632.63;695793;28;1418;-87
2022/01/25 02:37:02;;;;;;;19.35;16.35;;;;;;;1.62;100.00;102629.94;699356;28;4828;-88
2022/01/25 02:37:22;;;;;;;21.60;16.40;;;;;;;1.65;100.00;102622.44;692799;28;1158;-87
2022/01/25 02:37:44;;;;;;;20.07;16.57;;;;;;;1.68;100.00;102605.44;699748;28;1280;-87
2022/01/25 02:38:04;;;;;;;19.27;16.20;;;;;;;1.69;100.00;102619.25;694127;28;1370;-87
2022/01/25 02:38:27;;;;;;;19.53;16.03;;;;;;;1.69;100.00;102608.94;695699;28;2001;-88
2022/01/25 02:38:48;;;;;;;19.27;15.93;;;;;;;1.69;100.00;102629.56;694998;28;1167;-87
2022/01/25 02:39:09;;;;;;;19.03;15.63;;;;;;;1.68;100.00;102605.44;690822;28;1015;-87
2022/01/25 02:39:30;;;;;;;18.47;15.43;;;;;;;1.67;100.00;102624.28;693967;28;1169;-87
2022/01/25 02:39:50;;;;;;;19.20;16.13;;;;;;;1.67;100.00;102632.03;694874;28;4680;-87
2022/01/25 02:40:11;;;;;;;19.40;16.67;;;;;;;1.67;100.00;102600.19;693997;28;1267;-87
2022/01/25 02:40:35;;;;;;;19.92;16.30;;;;;;;1.68;100.00;102638.97;701644;28;1272;-87
2022/01/25 02:40:59;;;;;;;19.58;15.96;;;;;;;1.67;100.00;102616.53;694693;28;1378;-87
2022/01/25 02:41:23;;;;;;;18.48;15.57;;;;;;;1.69;100.00;102614.97;701484;28;2073;-87
2022/01/25 02:41:44;;;;;;;19.75;15.65;;;;;;;1.69;100.00;102609.81;692047;28;1207;-87
2022/01/25 02:42:06;;;;;;;19.37;15.57;;;;;;;1.66;100.00;102608.72;693407;28;2186;-87
2022/01/25 02:42:26;;;;;;;19.75;15.65;;;;;;;1.67;100.00;102611.38;696192;28;1149;-87
2022/01/25 02:42:47;;;;;;;21.08;16.73;;;;;;;1.65;100.00;102607.84;697838;28;4463;-87
2022/01/25 02:43:07;;;;;;;19.57;16.37;;;;;;;1.65;100.00;102607.84;695026;28;1149;-87
2022/01/25 02:43:28;;;;;;;18.38;16.13;;;;;;;1.66;100.00;102609.63;696833;28;1385;-87
2022/01/25 02:43:50;;;;;;;19.00;16.25;;;;;;;1.65;100.00;102622.44;697078;28;1001;-87
2022/01/25 02:44:13;;;;;;;21.02;16.48;;;;;;;1.64;100.00;102615.47;692736;28;1327;-87
2022/01/25 02:44:35;;;;;;;19.17;15.75;;;;;;;1.67;100.00;102638.88;692975;28;1432;-86
2022/01/25 02:45:10;;;;;;;19.35;17.00;;;;;;;1.67;100.00;102606.22;691193;28;968;-87
2022/01/25 02:45:34;;;;;;;20.80;16.65;;;;;;;1.73;100.00;102610.00;699867;28;4306;-87
2022/01/25 02:49:02;;;;;;;19.13;16.73;;;;;;;1.66;100.00;102614.78;687177;28;4830;-84
2022/01/25 02:49:23;;;;;;;20.55;16.98;;;;;;;1.66;100.00;102603.56;686733;28;1678;-83
2022/01/25 02:49:43;;;;;;;20.25;16.48;;;;;;;1.64;100.00;102603.47;688223;28;1847;-83
2022/01/25 02:50:05;;;;;;;19.00;16.17;;;;;;;1.65;100.00;102620.72;687910;28;1486;-84
2022/01/25 02:50:26;;;;;;;19.45;16.35;;;;;;;1.65;100.00;102648.22;686394;28;2718;-83
2022/01/25 02:50:49;;;;;;;19.45;16.27;;;;;;;1.63;100.00;102630.03;689245;28;1208;-84
2022/01/25 02:51:14;;;;;;;20.83;16.40;;;;;;;1.66;100.00;102616.44;689640;28;1326;-83
2022/01/25 02:51:48;;;;;;;19.63;15.98;;;;;;;1.68;100.00;102597.72;685557;28;4618;-84
2022/01/25 02:52:09;;;;;;;20.35;16.63;;;;;;;1.66;100.00;102634.50;687131;28;1393;-84
2022/01/25 02:52:30;;;;;;;20.70;16.25;;;;;;;1.69;100.00;102639.88;685120;28;1236;-84
2022/01/25 02:52:51;;;;;;;21.85;15.93;;;;;;;1.68;100.00;102628.66;683757;28;3703;-84
2022/01/25 02:53:11;;;;;;;20.03;15.70;;;;;;;1.67;100.00;102606.22;681179;28;1185;-84
2022/01/25 02:53:33;;;;;;;19.20;15.55;;;;;;;1.68;100.00;102613.19;677772;28;1490;-83
2022/01/25 02:53:54;;;;;;;19.33;15.98;;;;;;;1.67;100.00;102606.22;678332;29;1421;-83
2022/01/25 02:54:17;;;;;;;20.55;16.40;;;;;;;1.66;100.00;102635.41;685962;28;1190;-84
2022/01/25 02:54:40;;;;;;;20.92;16.42;;;;;;;1.64;100.00;102623.22;679999;28;4528;-84
2022/01/25 02:55:01;;;;;;;19.20;16.60;;;;;;;1.67;100.00;102595.03;690008;28;1222;-84
2022/01/25 02:55:27;;;;;;;20.55;17.33;;;;;;;1.65;100.00;102596.66;693126;28;3310;-83
2022/01/25 02:55:47;;;;;;;21.50;16.80;;;;;;;1.64;100.00;102615.47;695036;28;1633;-84
2022/01/25 02:56:14;;;;;;;20.42;15.60;;;;;;;1.64;100.00;102613.78;690959;28;1502;-83
2022/01/25 02:56:40;;;;;;;18.95;16.17;;;;;;;1.62;100.00;102620.53;696270;28;1316;-87
2022/01/25 02:57:01;;;;;;;18.88;16.05;;;;;;;1.61;100.00;102618.75;699117;28;1250;-85